Time;durP1;ratioP1;P1;durP2;ratioP2;P2;SDS_P1;SDS_P2;PMS_P1;PMS_P2;Temp;Humidity;BMP_temperature;BMP_pressure;BME280_temperature;BME280_humidity;BME280_pressure;Samples;Min_cycle;Max_cycle;Signal;HPM_P1;HPM_P2
2021/12/10 00:01:19;;;;;;;27.10;16.07;;;;;;;1.73;86.33;99744.22;4947910;28;20038;-93
2021/12/10 00:03:50;;;;;;;24.70;15.53;;;;;;;1.65;85.91;99741.72;4945597;29;20031;-94
2021/12/10 00:06:30;;;;;;;26.73;15.87;;;;;;;1.65;86.43;99729.75;4942577;29;20061;-94
2021/12/10 00:08:59;;;;;;;28.83;16.10;;;;;;;1.62;86.24;99723.81;4947342;29;20035;-93
2021/12/10 00:11:42;;;;;;;27.37;16.47;;;;;;;1.65;86.41;99724.63;4943945;28;20031;-94
2021/12/10 00:14:09;;;;;;;28.77;15.83;;;;;;;1.71;86.40;99722.91;4942133;28;20114;-94
2021/12/10 00:16:36;;;;;;;29.13;15.63;;;;;;;1.66;86.21;99712.66;4942015;29;20055;-94
2021/12/10 00:19:20;;;;;;;28.63;15.50;;;;;;;1.72;86.34;99710.06;4939849;29;20054;-93
2021/12/10 00:21:47;;;;;;;29.57;16.63;;;;;;;1.70;86.26;99695.56;4940084;29;20102;-94
2021/12/10 00:24:13;;;;;;;28.67;15.80;;;;;;;1.74;86.33;99686.94;4945672;29;20032;-93
2021/12/10 00:26:39;;;;;;;25.83;15.27;;;;;;;1.86;86.41;99691.13;4946894;29;20437;-93
2021/12/10 00:29:06;;;;;;;27.80;15.57;;;;;;;1.87;85.99;99683.44;4950145;29;20123;-94
2021/12/10 00:31:49;;;;;;;24.97;15.17;;;;;;;1.86;86.13;99671.50;4926911;29;20110;-94
2021/12/10 00:34:26;;;;;;;28.53;14.43;;;;;;;1.89;85.47;99666.31;4943529;29;20030;-94
2021/12/10 00:36:54;;;;;;;24.50;14.37;;;;;;;1.88;85.40;99664.59;4945293;29;20090;-93
2021/12/10 00:39:27;;;;;;;26.90;14.40;;;;;;;1.84;85.50;99665.50;4946451;28;20038;-93
2021/12/10 00:41:54;;;;;;;23.03;13.73;;;;;;;1.85;85.35;99658.66;4932959;29;20035;-92
2021/12/10 00:44:19;;;;;;;26.70;13.70;;;;;;;1.80;85.22;99651.84;4928835;29;20040;-93
2021/12/10 00:46:45;;;;;;;27.30;14.40;;;;;;;1.72;84.98;99639.97;4942334;28;20046;-95
2021/12/10 00:49:10;;;;;;;24.33;13.30;;;;;;;1.71;85.28;99640.84;4928076;29;20031;-93
2021/12/10 00:51:38;;;;;;;28.60;13.60;;;;;;;1.67;85.31;99635.75;4946990;28;20039;-95
2021/12/10 00:54:05;;;;;;;27.40;13.00;;;;;;;1.74;84.91;99641.66;4943013;28;20392;-93
2021/12/10 00:56:31;;;;;;;27.13;13.00;;;;;;;1.64;84.73;99624.66;4930072;29;20491;-93
2021/12/10 00:58:56;;;;;;;27.87;12.87;;;;;;;1.65;84.76;99626.34;4944060;28;20035;-94
2021/12/10 01:01:26;;;;;;;27.87;12.27;;;;;;;1.64;85.10;99617.81;4944992;28;20035;-93
2021/12/10 01:03:56;;;;;;;23.37;11.60;;;;;;;1.66;84.79;99618.66;4944597;29;20035;-93
2021/12/10 01:06:24;;;;;;;23.73;11.70;;;;;;;1.55;84.79;99589.69;4941587;29;20523;-93
2021/12/10 01:08:54;;;;;;;21.57;11.17;;;;;;;1.55;84.78;99593.97;4942212;28;20031;-92
2021/12/10 01:11:34;;;;;;;19.10;10.50;;;;;;;1.56;85.15;99577.75;4928356;29;20031;-93
2021/12/10 01:14:12;;;;;;;21.00;10.07;;;;;;;1.57;84.64;99582.84;4942692;29;20165;-93
2021/12/10 01:27:32;;;;;;;20.07;9.13;;;;;;;1.52;84.47;99553.88;4941767;28;20035;-93
2021/12/10 01:30:06;;;;;;;20.97;9.17;;;;;;;1.52;84.80;99547.00;4944763;29;20042;-92
2021/12/10 01:32:36;;;;;;;14.10;8.63;;;;;;;1.49;84.57;99534.22;4944392;28;20033;-93
2021/12/10 01:35:05;;;;;;;14.73;8.73;;;;;;;1.52;84.58;99531.63;4941697;28;20434;-93
2021/12/10 01:37:31;;;;;;;19.43;8.93;;;;;;;1.50;84.54;99514.56;4941749;28;20032;-93
2021/12/10 01:39:56;;;;;;;16.67;9.40;;;;;;;1.54;84.53;99521.34;4945932;28;20403;-92
2021/12/10 01:44:56;;;;;;;17.02;9.05;;;;;;;1.44;84.49;99506.94;4944704;29;20079;-93
2021/12/10 01:47:36;;;;;;;17.40;9.60;;;;;;;1.50;84.69;99501.75;4963077;28;20027;-93
2021/12/10 01:50:06;;;;;;;18.67;10.80;;;;;;;1.51;84.48;99511.16;4942670;29;20441;-94
2021/12/10 01:52:32;;;;;;;16.70;10.07;;;;;;;1.44;84.69;99489.00;4941573;29;20019;-93
2021/12/10 01:55:01;;;;;;;17.13;9.20;;;;;;;1.48;84.54;99500.94;4946535;28;20023;-95
2021/12/10 01:57:30;;;;;;;18.23;8.90;;;;;;;1.47;84.75;99488.97;4945807;28;20035;-93
2021/12/10 01:59:56;;;;;;;17.57;7.73;;;;;;;1.47;84.65;99483.84;4941781;29;20031;-93
2021/12/10 02:02:27;;;;;;;13.73;7.77;;;;;;;1.44;84.43;99478.75;4944653;28;20023;-93
2021/12/10 02:04:53;;;;;;;15.63;7.90;;;;;;;1.46;84.44;99488.09;4941629;29;20106;-93
2021/12/10 02:07:21;;;;;;;12.83;8.00;;;;;;;1.39;84.63;99475.38;4951445;28;20082;-92
2021/12/10 02:09:48;;;;;;;12.10;7.07;;;;;;;1.41;84.22;99473.66;4951651;29;20071;-93
2021/12/10 02:12:15;;;;;;;11.57;7.03;;;;;;;1.41;84.29;99460.84;4946548;28;20051;-93
2021/12/10 02:14:42;;;;;;;13.80;7.40;;;;;;;1.42;84.45;99454.84;4946489;28;20044;-93
2021/12/10 02:17:07;;;;;;;16.10;7.43;;;;;;;1.38;84.41;99448.06;4948119;28;20082;-93
2021/12/10 02:19:34;;;;;;;15.80;7.13;;;;;;;1.43;84.39;99448.84;4946414;29;20054;-95
2021/12/10 02:22:02;;;;;;;15.07;7.40;;;;;;;1.41;84.16;99441.19;4929865;29;20472;-93
2021/12/10 02:24:27;;;;;;;14.27;6.80;;;;;;;1.36;84.11;99420.75;4947776;28;20405;-92
2021/12/10 02:26:58;;;;;;;13.47;6.90;;;;;;;1.41;84.27;99435.22;4949996;28;20032;-94
2021/12/10 02:29:27;;;;;;;14.77;6.70;;;;;;;1.38;84.10;99422.44;4947128;29;20484;-93
2021/12/10 02:31:53;;;;;;;13.53;6.23;;;;;;;1.35;83.97;99413.94;4948688;28;20126;-93
2021/12/10 02:34:19;;;;;;;15.03;6.03;;;;;;;1.33;84.34;99407.97;4944365;28;20034;-94
2021/12/10 02:36:45;;;;;;;13.00;6.17;;;;;;;1.40;84.10;99410.44;4950379;28;20034;-93
2021/12/10 02:39:22;;;;;;;12.33;5.73;;;;;;;1.34;84.18;99396.88;4945661;28;20035;-95
2021/12/10 02:41:48;;;;;;;10.80;5.43;;;;;;;1.40;84.03;99410.44;4948558;29;20114;-93
2021/12/10 02:44:19;;;;;;;12.93;5.20;;;;;;;1.33;83.95;99387.47;4943334;29;20036;-92
2021/12/10 02:46:44;;;;;;;13.37;5.23;;;;;;;1.37;83.92;99380.59;4944913;28;20040;-93
2021/12/10 02:49:11;;;;;;;13.03;5.47;;;;;;;1.33;83.85;99372.09;4942027;29;20038;-95
2021/12/10 02:51:37;;;;;;;10.57;5.20;;;;;;;1.34;83.74;99366.13;4926519;29;20119;-94
2021/12/10 02:54:06;;;;;;;9.10;4.63;;;;;;;1.33;83.75;99359.28;4947314;29;20167;-94
2021/12/10 02:56:31;;;;;;;11.77;5.17;;;;;;;1.41;83.88;99371.16;4931492;29;20031;-94
2021/12/10 02:58:59;;;;;;;9.87;5.23;;;;;;;1.37;83.64;99357.53;4949976;28;20035;-94
2021/12/10 03:01:33;;;;;;;11.33;5.00;;;;;;;1.36;83.33;99360.97;4945831;29;20035;-94
2021/12/10 03:03:59;;;;;;;14.13;5.40;;;;;;;1.33;83.48;99351.59;4934774;29;20025;-94
2021/12/10 03:06:25;;;;;;;11.50;5.50;;;;;;;1.45;83.58;99363.41;4931838;29;20098;-94
2021/12/10 03:08:54;;;;;;;12.00;6.13;;;;;;;1.38;83.34;99346.41;4948082;28;20027;-93
2021/12/10 03:11:23;;;;;;;12.23;6.60;;;;;;;1.44;83.65;99350.63;4949049;29;20035;-92
2021/12/10 03:13:49;;;;;;;17.50;7.10;;;;;;;1.43;83.39;99339.53;4944888;29;20029;-94
2021/12/10 03:16:15;;;;;;;13.17;6.70;;;;;;;1.44;83.27;99340.38;4945269;28;20027;-94
2021/12/10 03:18:41;;;;;;;15.43;6.87;;;;;;;1.49;83.16;99341.16;4946075;29;20399;-93
2021/12/10 03:21:09;;;;;;;12.77;6.43;;;;;;;1.45;83.18;99332.66;4945427;29;20111;-94
2021/12/10 03:23:42;;;;;;;12.80;6.67;;;;;;;1.49;83.18;99333.47;4947120;28;20063;-92
2021/12/10 03:26:17;;;;;;;12.63;6.60;;;;;;;1.49;82.78;99330.91;4945422;29;20059;-95
2021/12/10 03:28:43;;;;;;;13.97;6.63;;;;;;;1.52;82.82;99325.75;4944440;29;20043;-93
2021/12/10 03:31:10;;;;;;;14.70;5.97;;;;;;;1.52;83.07;99318.06;4941085;29;20034;-94
2021/12/10 03:33:39;;;;;;;12.87;6.30;;;;;;;1.46;82.73;99307.88;4926523;29;20106;-93
2021/12/10 03:36:07;;;;;;;12.30;5.83;;;;;;;1.43;82.69;99300.22;4930427;29;20118;-93
2021/12/10 03:38:34;;;;;;;12.00;5.63;;;;;;;1.45;82.52;99301.88;4931884;29;20035;-94
2021/12/10 03:41:00;;;;;;;11.70;5.33;;;;;;;1.47;82.80;99301.88;4929615;29;20126;-92
2021/12/10 03:43:27;;;;;;;11.50;4.90;;;;;;;1.40;82.85;99290.88;4927669;29;20031;-94
2021/12/10 03:45:55;;;;;;;11.57;4.93;;;;;;;1.44;82.53;99299.38;4946873;28;20031;-93
2021/12/10 03:48:24;;;;;;;11.10;4.90;;;;;;;1.39;82.78;99296.00;4943794;29;20504;-94
2021/12/10 03:50:50;;;;;;;13.57;4.93;;;;;;;1.39;82.69;99286.63;4931669;29;20093;-93
2021/12/10 03:53:17;;;;;;;10.57;4.40;;;;;;;1.40;82.85;99287.44;4943430;29;20178;-93
2021/12/10 03:55:43;;;;;;;9.20;4.63;;;;;;;1.36;82.66;99267.03;4940830;28;20043;-92
2021/12/10 03:58:09;;;;;;;9.60;4.40;;;;;;;1.34;82.58;99258.50;4940512;29;20104;-92
2021/12/10 04:00:39;;;;;;;8.40;4.50;;;;;;;1.27;82.77;99262.00;4945734;28;20031;-93
2021/12/10 04:03:06;;;;;;;9.17;4.33;;;;;;;1.26;82.54;99259.47;4931952;29;20046;-93
2021/12/10 04:05:32;;;;;;;14.00;4.37;;;;;;;1.38;82.54;99269.53;4947999;28;20107;-94
2021/12/10 04:07:57;;;;;;;9.40;4.40;;;;;;;1.33;82.50;99256.81;4945851;28;20034;-94
2021/12/10 04:10:24;;;;;;;9.97;4.30;;;;;;;1.33;82.53;99261.94;4949863;29;20038;-93
2021/12/10 04:12:49;;;;;;;10.03;4.50;;;;;;;1.23;82.12;99237.28;4946077;29;20043;-93
2021/12/10 04:15:18;;;;;;;14.33;4.57;;;;;;;1.33;82.57;99255.94;4942511;28;20024;-93
2021/12/10 04:17:44;;;;;;;11.67;4.40;;;;;;;1.37;82.68;99255.03;4938915;28;20055;-94
2021/12/10 04:20:10;;;;;;;13.37;6.17;;;;;;;1.36;82.64;99245.66;4945626;29;20023;-94
2021/12/10 04:22:36;;;;;;;18.10;8.10;;;;;;;1.29;82.69;99231.22;4945743;29;20110;-93
2021/12/10 04:25:06;;;;;;;11.17;5.03;;;;;;;1.42;82.46;99244.72;4947396;29;20031;-94
2021/12/10 04:27:31;;;;;;;8.97;4.00;;;;;;;1.40;82.47;99231.06;4941397;29;20038;-93
2021/12/10 04:29:58;;;;;;;9.50;4.27;;;;;;;1.44;82.83;99233.59;4944236;28;20031;-93
2021/12/10 04:32:25;;;;;;;9.40;3.67;;;;;;;1.42;82.45;99219.97;4942069;29;20407;-94
2021/12/10 04:34:52;;;;;;;11.27;4.10;;;;;;;1.50;82.45;99225.81;4941648;28;20030;-93
2021/12/10 04:37:17;;;;;;;10.73;3.87;;;;;;;1.49;82.50;99216.41;4944984;29;20039;-93
2021/12/10 04:39:46;;;;;;;10.23;3.63;;;;;;;1.50;82.92;99207.03;4944511;29;20114;-93
2021/12/10 04:42:19;;;;;;;9.87;4.00;;;;;;;1.52;83.14;99203.56;4940275;28;20027;-93
2021/12/10 04:44:45;;;;;;;10.73;4.00;;;;;;;1.56;82.61;99199.22;4944713;28;20036;-94
2021/12/10 04:47:10;;;;;;;10.63;3.57;;;;;;;1.57;82.63;99197.53;4945052;29;20057;-93
2021/12/10 04:49:36;;;;;;;12.47;3.43;;;;;;;1.58;82.68;99184.69;4942517;28;20066;-94
2021/12/10 04:52:04;;;;;;;8.53;3.30;;;;;;;1.53;82.47;99176.22;4948522;29;20038;-95
2021/12/10 04:54:29;;;;;;;10.10;3.37;;;;;;;1.54;82.19;99170.22;4941467;29;20123;-94
2021/12/10 04:56:58;;;;;;;10.23;3.80;;;;;;;1.51;82.61;99153.16;4947824;28;20452;-93
2021/12/10 04:59:26;;;;;;;9.00;3.30;;;;;;;1.55;82.50;99158.25;4944217;28;20530;-94
2021/12/10 05:01:54;;;;;;;9.27;3.40;;;;;;;1.54;82.67;99152.25;4944698;28;20032;-94
2021/12/10 05:04:20;;;;;;;11.87;3.30;;;;;;;1.61;82.40;99153.88;4942698;28;20031;-93
2021/12/10 05:06:45;;;;;;;11.77;2.90;;;;;;;1.53;81.70;99130.09;4944101;28;20089;-94
2021/12/10 05:09:12;;;;;;;11.43;3.23;;;;;;;1.58;82.18;99135.97;4944952;28;20032;-93
2021/12/10 05:11:38;;;;;;;9.20;3.20;;;;;;;1.56;81.80;99122.34;4943506;28;20027;-93
2021/12/10 05:14:03;;;;;;;6.90;2.73;;;;;;;1.55;81.94;99115.53;4943326;28;20045;-94
2021/12/10 05:16:29;;;;;;;11.27;2.80;;;;;;;1.61;82.17;99118.00;4947437;28;20563;-94
2021/12/10 05:18:59;;;;;;;9.67;3.10;;;;;;;1.59;82.19;99116.34;4945300;29;20039;-93
2021/12/10 05:21:27;;;;;;;9.37;2.77;;;;;;;1.56;82.41;99099.28;4925438;29;20070;-93
2021/12/10 05:23:54;;;;;;;9.90;2.90;;;;;;;1.64;82.26;99111.94;4928013;29;20127;-94
2021/12/10 05:26:20;;;;;;;10.00;2.67;;;;;;;1.64;82.10;99111.94;4944059;29;20032;-94
2021/12/10 05:28:45;;;;;;;12.33;2.80;;;;;;;1.59;82.18;99088.97;4945993;29;20095;-94
2021/12/10 05:31:11;;;;;;;10.83;2.70;;;;;;;1.63;82.46;99106.00;4949476;28;20396;-95
2021/12/10 05:33:37;;;;;;;10.47;2.63;;;;;;;1.65;82.15;99101.69;4945172;29;20054;-94
2021/12/10 05:36:03;;;;;;;10.17;2.77;;;;;;;1.71;82.03;99105.88;4943905;28;20078;-93
2021/12/10 05:38:30;;;;;;;8.27;2.67;;;;;;;1.69;82.21;99089.66;4943879;28;20033;-93
2021/12/10 05:40:56;;;;;;;11.37;2.87;;;;;;;1.70;82.02;99098.22;4942239;28;20134;-93
2021/12/10 05:43:22;;;;;;;12.97;2.73;;;;;;;1.68;82.08;99085.41;4946424;28;20027;-93
2021/12/10 05:45:49;;;;;;;7.07;2.30;;;;;;;1.77;81.92;99097.22;4930984;29;20042;-93
2021/12/10 05:48:15;;;;;;;7.77;2.67;;;;;;;1.79;82.12;99092.91;4927943;29;20050;-94
2021/12/10 05:50:44;;;;;;;10.10;2.47;;;;;;;1.77;81.94;99086.94;4941868;29;20515;-95
2021/12/10 05:53:10;;;;;;;9.63;2.80;;;;;;;1.84;81.90;99088.53;4945132;29;20067;-94
2021/12/10 05:55:37;;;;;;;9.63;2.20;;;;;;;1.79;81.49;99069.81;4921698;29;20063;-94
2021/12/10 05:58:04;;;;;;;10.07;2.13;;;;;;;1.80;82.09;99071.53;4925043;29;20042;-96
2021/12/10 06:00:36;;;;;;;10.27;2.47;;;;;;;1.80;82.20;99076.66;4928443;29;21278;-94
2021/12/10 06:03:01;;;;;;;11.48;2.33;;;;;;;1.90;81.75;99078.16;4927372;29;20593;-94
2021/12/10 06:05:28;;;;;;;12.17;2.60;;;;;;;1.87;81.66;99070.53;4943180;28;20027;-95
2021/12/10 06:07:54;;;;;;;11.43;2.47;;;;;;;1.81;81.66;99068.09;4943896;29;20036;-93
2021/12/10 06:10:21;;;;;;;9.80;2.50;;;;;;;1.85;81.74;99064.59;4941427;29;20067;-94
2021/12/10 06:12:47;;;;;;;11.80;2.80;;;;;;;1.88;81.49;99064.50;4944326;28;20050;-94
2021/12/10 06:15:16;;;;;;;10.80;2.80;;;;;;;1.83;nan;99045.81;4944838;29;20388;-94
2021/12/10 06:17:42;;;;;;;10.40;2.50;;;;;;;1.87;81.40;99052.59;4943264;28;20073;-95
2021/12/10 06:20:10;;;;;;;10.27;2.60;;;;;;;1.88;81.40;99048.31;4940897;29;20594;-94
2021/12/10 06:22:36;;;;;;;9.23;2.50;;;;;;;1.87;81.12;99044.03;4926581;29;20028;-95
2021/12/10 06:25:03;;;;;;;7.97;2.43;;;;;;;1.84;81.30;99041.53;4929252;29;20373;-96
2021/12/10 06:27:28;;;;;;;8.63;2.30;;;;;;;1.85;81.12;99038.09;4927321;29;20358;-94
2021/12/10 06:29:54;;;;;;;9.87;2.53;;;;;;;1.90;81.41;99036.28;4942619;28;20481;-95
2021/12/10 06:32:19;;;;;;;9.73;2.40;;;;;;;1.85;81.34;99033.81;4941672;29;20463;-96
2021/12/10 06:34:44;;;;;;;7.57;2.30;;;;;;;1.88;81.39;99041.44;4943129;29;20064;-92
2021/12/10 06:37:10;;;;;;;10.33;2.40;;;;;;;1.87;81.68;99038.91;4939443;28;20027;-94
2021/12/10 06:39:35;;;;;;;10.97;2.30;;;;;;;1.88;81.70;99038.03;4927921;29;20027;-93
2021/12/10 06:42:02;;;;;;;10.80;2.60;;;;;;;1.85;80.93;99026.13;4940390;28;20063;-95
2021/12/10 06:44:28;;;;;;;12.80;2.70;;;;;;;1.85;81.30;99028.69;4944199;28;20521;-93
2021/12/10 06:46:54;;;;;;;10.70;2.33;;;;;;;1.89;81.42;99035.44;4926595;29;20039;-94
2021/12/10 06:49:19;;;;;;;7.67;2.40;;;;;;;1.92;81.72;99039.69;4924957;29;20168;-94
2021/12/10 06:51:45;;;;;;;15.80;3.10;;;;;;;1.87;81.45;99033.78;4947393;28;20034;-95
2021/12/10 06:54:10;;;;;;;10.37;2.50;;;;;;;1.95;81.53;99045.59;4946023;29;20147;-94
2021/12/10 06:56:37;;;;;;;9.67;2.60;;;;;;;1.87;81.56;99036.34;4946820;28;20024;-95
2021/12/10 06:59:05;;;;;;;13.27;2.53;;;;;;;1.94;81.29;99045.63;4944441;29;20420;-95
2021/12/10 07:01:35;;;;;;;11.20;2.60;;;;;;;1.93;81.45;99043.94;4951128;28;20096;-94
2021/12/10 07:04:09;;;;;;;10.37;3.50;;;;;;;1.90;81.44;99036.28;4933882;29;20038;-96
2021/12/10 07:06:37;;;;;;;9.23;3.10;;;;;;;1.93;81.69;99039.63;4929524;29;20061;-95
2021/12/10 07:09:09;;;;;;;10.50;2.70;;;;;;;2.00;81.45;99053.19;4945150;28;20035;-94
2021/12/10 07:11:35;;;;;;;13.30;2.83;;;;;;;1.93;81.43;99044.75;4947600;29;20059;-95
2021/12/10 07:14:00;;;;;;;10.67;2.97;;;;;;;1.93;81.40;99049.91;4945196;29;20078;-95
2021/12/10 07:16:27;;;;;;;14.70;3.00;;;;;;;1.91;81.21;99041.38;4926071;29;20040;-95
2021/12/10 07:18:54;;;;;;;11.73;2.93;;;;;;;2.00;80.87;99052.34;4944978;28;20110;-95
2021/12/10 07:21:23;;;;;;;10.57;2.70;;;;;;;1.97;80.85;99050.66;4942591;29;20023;-96
2021/12/10 07:23:49;;;;;;;9.27;3.33;;;;;;;1.94;81.01;99043.91;4946823;29;20028;-94
2021/12/10 07:26:16;;;;;;;11.97;3.20;;;;;;;1.95;80.85;99044.75;4945447;28;21424;-95
2021/12/10 07:28:41;;;;;;;9.03;3.00;;;;;;;2.01;80.63;99051.47;4945532;29;20045;-96
2021/12/10 07:31:08;;;;;;;11.23;2.83;;;;;;;1.95;80.89;99043.03;4949778;28;20484;-95
2021/12/10 07:33:34;;;;;;;9.80;3.13;;;;;;;1.97;80.87;99048.97;4943392;28;20024;-95
2021/12/10 07:36:00;;;;;;;14.37;3.10;;;;;;;1.95;80.40;99040.44;4947522;28;20114;-95
2021/12/10 07:38:25;;;;;;;8.27;3.07;;;;;;;1.90;80.37;99037.13;4942329;29;20057;-95
2021/12/10 07:40:52;;;;;;;10.90;3.60;;;;;;;1.92;81.00;99032.81;4944228;29;20027;-94
2021/12/10 07:43:19;;;;;;;14.23;3.80;;;;;;;1.94;80.65;99037.94;4941476;28;20034;-95
2021/12/10 07:45:46;;;;;;;11.33;3.27;;;;;;;1.95;80.83;99027.63;4945403;28;20034;-94
2021/12/10 07:48:14;;;;;;;9.27;3.33;;;;;;;1.96;80.55;99031.88;4944707;28;20325;-96
2021/12/10 07:50:53;;;;;;;8.37;3.40;;;;;;;1.99;80.53;99036.09;4947318;29;20034;-96
2021/12/10 07:53:19;;;;;;;10.20;3.37;;;;;;;1.95;80.43;99030.19;4945356;29;20058;-93
2021/12/10 07:55:45;;;;;;;13.90;3.30;;;;;;;1.93;80.14;99031.94;4943944;28;20061;-94
2021/12/10 07:58:11;;;;;;;10.70;3.50;;;;;;;1.97;80.15;99028.44;4948023;28;20026;-94
2021/12/10 08:00:40;;;;;;;12.93;4.03;;;;;;;2.00;80.12;99044.66;4943961;29;20099;-94
2021/12/10 08:03:05;;;;;;;11.60;3.53;;;;;;;1.99;80.50;99048.94;4941305;28;20497;-95
2021/12/10 08:05:30;;;;;;;14.77;3.90;;;;;;;1.97;80.42;99042.97;4945223;29;20062;-94
2021/12/10 08:07:56;;;;;;;12.40;4.07;;;;;;;2.06;80.49;99052.22;4943491;28;20122;-96
2021/12/10 08:10:23;;;;;;;10.13;3.77;;;;;;;2.03;80.28;99047.16;4943655;28;20448;-94
2021/12/10 08:12:48;;;;;;;11.00;4.67;;;;;;;2.07;80.61;99048.78;4943423;28;20098;-94
2021/12/10 08:15:15;;;;;;;9.17;4.33;;;;;;;2.05;80.00;99042.84;4943527;29;20135;-95
2021/12/10 08:17:42;;;;;;;10.07;4.70;;;;;;;2.14;80.52;99055.47;4940140;29;20047;-94
2021/12/10 08:20:09;;;;;;;12.80;4.60;;;;;;;2.20;80.54;99057.94;5011940;23;20184;-90
2021/12/10 08:22:35;;;;;;;13.70;4.67;;;;;;;2.17;80.49;99049.44;4950802;28;20050;-93
2021/12/10 08:25:00;;;;;;;11.07;4.70;;;;;;;2.17;80.49;99040.03;4948708;28;20035;-92
2021/12/10 08:27:26;;;;;;;15.17;5.17;;;;;;;2.22;80.39;99045.88;4949761;28;20027;-93
2021/12/10 08:29:51;;;;;;;11.10;5.20;;;;;;;2.30;79.96;99057.72;4949933;28;20038;-93
2021/12/10 08:32:20;;;;;;;12.03;5.30;;;;;;;2.26;79.94;99056.97;4947709;28;20083;-92
2021/12/10 08:34:48;;;;;;;10.87;5.20;;;;;;;2.30;80.14;99050.91;4947957;28;20023;-92
2021/12/10 08:37:14;;;;;;;14.70;5.57;;;;;;;2.30;79.60;99047.47;4947374;28;20035;-91
2021/12/10 08:39:40;;;;;;;13.53;5.43;;;;;;;2.30;79.80;99057.72;4948197;28;20069;-90
2021/12/10 08:42:06;;;;;;;13.53;5.07;;;;;;;2.39;80.07;99062.69;4946961;28;20086;-88
2021/12/10 08:44:33;;;;;;;15.87;5.70;;;;;;;2.40;79.86;99059.22;4950154;28;20054;-93
2021/12/10 08:47:00;;;;;;;13.90;5.50;;;;;;;2.41;79.29;99066.91;4947380;28;20058;-92
2021/12/10 08:49:27;;;;;;;15.00;5.37;;;;;;;2.44;78.94;99068.56;4949459;28;20035;-92
2021/12/10 08:51:56;;;;;;;14.17;5.87;;;;;;;2.44;79.46;99065.97;4950926;28;20035;-94
2021/12/10 08:54:26;;;;;;;13.90;5.47;;;;;;;2.45;79.05;99059.16;4950256;28;20058;-91
2021/12/10 08:56:52;;;;;;;14.00;5.93;;;;;;;2.46;79.47;99065.97;4948716;28;20138;-92
2021/12/10 08:59:21;;;;;;;18.43;5.77;;;;;;;2.48;79.22;99062.47;4948706;28;20122;-89
2021/12/10 09:01:49;;;;;;;14.53;5.20;;;;;;;2.47;78.83;99060.78;4949318;28;20033;-90
2021/12/10 09:04:15;;;;;;;11.60;5.57;;;;;;;2.54;78.84;99064.06;4948813;28;20117;-92
2021/12/10 09:06:44;;;;;;;12.90;5.17;;;;;;;2.53;78.79;99065.81;4949310;28;20094;-90
2021/12/10 09:09:12;;;;;;;12.47;5.53;;;;;;;2.56;78.70;99064.88;4949047;28;20031;-89
2021/12/10 09:11:44;;;;;;;14.27;5.40;;;;;;;2.58;78.90;99066.53;4947995;28;20539;-91
2021/12/10 09:19:14;;;;;;;13.50;5.33;;;;;;;2.62;79.27;99087.00;4945950;28;20043;-92
2021/12/10 09:21:42;;;;;;;11.27;5.33;;;;;;;2.66;79.25;99080.94;4952240;28;20046;-94
2021/12/10 09:24:11;;;;;;;12.50;5.13;;;;;;;2.65;79.05;99076.66;4947193;28;20031;-93
2021/12/10 09:26:40;;;;;;;12.60;5.20;;;;;;;2.70;78.40;99082.56;4930384;28;20162;-86
2021/12/10 09:29:09;;;;;;;12.27;4.77;;;;;;;2.73;78.59;99085.06;4948148;28;20054;-88
2021/12/10 09:31:36;;;;;;;14.93;5.10;;;;;;;2.75;79.02;99088.41;4946350;28;20023;-89
2021/12/10 09:34:02;;;;;;;12.63;4.67;;;;;;;2.78;78.37;99085.78;4948429;28;20114;-93
2021/12/10 09:36:28;;;;;;;13.67;5.20;;;;;;;2.80;78.28;99083.19;4946541;28;20030;-90
2021/12/10 09:38:55;;;;;;;10.23;4.50;;;;;;;2.83;78.32;99086.53;4948612;28;20520;-90
2021/12/10 09:41:21;;;;;;;14.67;5.10;;;;;;;2.83;77.81;99086.53;4947160;28;20396;-92
2021/12/10 09:43:46;;;;;;;14.60;4.97;;;;;;;2.88;78.08;99083.88;4948937;28;20024;-92
2021/12/10 09:46:13;;;;;;;14.30;4.77;;;;;;;2.91;77.89;99090.63;4950478;28;20027;-93
2021/12/10 09:48:40;;;;;;;13.80;5.00;;;;;;;2.94;77.83;99088.88;4948210;28;20461;-91
2021/12/10 09:51:13;;;;;;;11.50;4.70;;;;;;;2.95;77.97;99085.41;4950870;28;20077;-93
2021/12/10 09:53:44;;;;;;;11.40;4.57;;;;;;;2.97;78.29;99087.94;4948977;28;20034;-94
2021/12/10 09:56:10;;;;;;;12.83;4.73;;;;;;;3.02;78.08;99088.69;4949842;28;20040;-92
2021/12/10 09:58:37;;;;;;;15.80;5.20;;;;;;;3.01;77.21;99087.00;4949203;28;20034;-93
2021/12/10 10:01:11;;;;;;;14.87;4.40;;;;;;;3.05;77.71;99091.19;4951296;28;20050;-96
2021/12/10 10:03:41;;;;;;;10.47;3.90;;;;;;;3.02;77.77;99075.84;4946602;28;20035;-93
2021/12/10 10:06:08;;;;;;;9.97;4.13;;;;;;;3.08;77.54;99082.56;4930378;28;20393;-93
2021/12/10 10:08:35;;;;;;;11.57;4.70;;;;;;;3.11;78.27;99080.75;4949662;28;20110;-93
2021/12/10 10:11:08;;;;;;;14.00;4.33;;;;;;;3.14;77.71;99072.16;4931674;28;20059;-95
2021/12/10 10:13:38;;;;;;;12.27;4.50;;;;;;;3.17;77.75;99079.75;4947829;28;20034;-93
2021/12/10 10:16:07;;;;;;;14.70;4.43;;;;;;;3.10;77.69;99068.78;4973036;23;20051;-96
2021/12/10 10:18:36;;;;;;;10.60;4.30;;;;;;;3.15;78.47;99077.25;4974064;28;20109;-93
2021/12/10 10:21:12;;;;;;;10.40;4.20;;;;;;;3.19;77.81;99089.16;4967548;28;20029;-95
2021/12/10 10:23:41;;;;;;;10.50;4.17;;;;;;;3.16;77.77;99084.06;4972379;28;20027;-95
2021/12/10 10:26:09;;;;;;;14.17;4.47;;;;;;;3.19;77.47;99085.72;4977810;28;20152;-92
2021/12/10 10:28:35;;;;;;;13.60;4.00;;;;;;;3.18;77.83;99087.44;4968813;28;20030;-93
2021/12/10 10:31:09;;;;;;;11.47;4.00;;;;;;;3.16;77.80;99075.53;4972296;28;20078;-92
2021/12/10 10:33:59;;;;;;;9.20;3.70;;;;;;;3.22;77.74;99083.06;4978501;28;20046;-95
2021/12/10 10:36:28;;;;;;;10.87;4.00;;;;;;;3.15;77.99;99081.56;4969414;28;20126;-92
2021/12/10 10:39:09;;;;;;;13.80;4.10;;;;;;;3.14;78.13;99072.97;4980009;28;20038;-92
2021/12/10 10:41:38;;;;;;;11.97;4.10;;;;;;;3.18;78.00;99082.31;4971225;28;20027;-93
2021/12/10 10:44:41;;;;;;;10.80;3.70;;;;;;;3.23;78.70;99078.78;4974946;28;20023;-96
2021/12/10 10:47:07;;;;;;;12.97;3.60;;;;;;;3.28;77.57;99082.94;4972960;28;20022;-92
2021/12/10 10:50:09;;;;;;;;;;;;;;;;;;;;;
2021/12/10 10:55:09;;;;;;;13.87;4.30;;;;;;;3.37;77.45;99092.16;5108399;23;20359;-90
2021/12/10 10:57:35;;;;;;;12.87;4.13;;;;;;;3.32;77.21;99078.56;4968678;28;20041;-92
2021/12/10 11:00:15;;;;;;;10.63;3.87;;;;;;;3.43;77.18;99091.16;4951808;28;20031;-93
2021/12/10 11:02:50;;;;;;;10.67;3.83;;;;;;;3.38;77.29;99092.97;4950548;28;20081;-90
2021/12/10 11:05:23;;;;;;;11.43;4.33;;;;;;;3.43;76.95;99086.84;4950310;28;20049;-92
2021/12/10 11:07:55;;;;;;;12.97;4.13;;;;;;;3.42;77.50;99092.84;4967158;28;20031;-92
2021/12/10 11:10:32;;;;;;;13.83;3.93;;;;;;;3.44;76.76;99088.53;4946475;28;20034;-90
2021/12/10 11:13:21;;;;;;;11.43;4.03;;;;;;;3.54;76.93;99093.47;4968790;28;20065;-94
2021/12/10 11:16:06;;;;;;;13.27;4.20;;;;;;;3.54;76.71;99088.31;4956259;28;20042;-91
2021/12/10 11:18:39;;;;;;;12.80;3.87;;;;;;;3.54;76.84;99091.72;4965696;28;20073;-91
2021/12/10 11:21:05;;;;;;;9.13;3.73;;;;;;;3.55;76.04;99090.84;4968997;28;20045;-91
2021/12/10 11:23:31;;;;;;;13.60;4.27;;;;;;;3.57;76.70;99090.81;4971264;28;20035;-91
2021/12/10 11:25:56;;;;;;;11.37;3.90;;;;;;;3.59;75.97;99096.72;4968498;28;20546;-93
2021/12/10 11:28:34;;;;;;;13.93;3.97;;;;;;;3.57;75.66;99096.78;4966543;28;20109;-92
2021/12/10 11:31:08;;;;;;;11.90;3.83;;;;;;;3.64;75.52;99105.19;4966294;28;20100;-92
2021/12/10 11:36:16;;;;;;;13.03;4.00;;;;;;;3.61;75.55;99092.41;4991782;23;20042;-95
2021/12/10 11:38:55;;;;;;;11.23;3.70;;;;;;;3.56;75.56;99087.38;5169898;23;20443;-96
2021/12/10 11:41:26;;;;;;;14.23;3.53;;;;;;;3.62;74.93;99096.66;4954129;28;20019;-90
2021/12/10 11:46:47;;;;;;;10.37;3.97;;;;;;;3.61;75.00;99100.97;4928745;28;20480;-92
2021/12/10 11:49:23;;;;;;;;;;;;;;;3.73;76.21;99104.09;4910787;29;20370;-91
2021/12/10 11:51:56;;;;;;;12.83;3.93;;;;;;;3.64;75.56;99110.31;4927346;29;19926;-90
2021/12/10 11:54:28;;;;;;;11.87;4.10;;;;;;;3.66;75.82;99111.13;4927839;29;20056;-91
2021/12/10 11:57:16;;;;;;;12.30;3.77;;;;;;;3.67;75.58;99112.81;4925947;28;20036;-95
2021/12/10 11:59:47;;;;;;;10.50;3.83;;;;;;;3.65;74.55;99114.59;4925633;29;20083;-90
2021/12/10 12:02:25;;;;;;;11.18;3.63;;;;;;;3.65;74.56;99114.59;4909152;29;20520;-93
2021/12/10 12:04:54;;;;;;;9.83;3.63;;;;;;;3.59;74.47;99112.16;4922298;29;20504;-91
2021/12/10 12:07:35;;;;;;;10.90;3.80;;;;;;;3.60;74.63;99114.72;4926946;29;20035;-92
2021/12/10 12:10:26;;;;;;;14.47;4.57;;;;;;;3.58;74.61;99110.50;4925246;29;20035;-92